createdAt,value
2023-07-25T00:00:00.703Z,6.83
2023-07-25T00:03:03.678Z,5.88
2023-07-25T00:06:06.184Z,5.78
2023-07-25T00:09:09.289Z,8.52
2023-07-25T00:12:11.911Z,7.22
2023-07-25T00:15:14.806Z,8.30
2023-07-25T00:18:17.200Z,6.97
2023-07-25T00:21:19.613Z,8.77
2023-07-25T00:24:22.473Z,6.45
2023-07-25T00:27:24.908Z,9.25
2023-07-25T00:30:27.746Z,7.63
2023-07-25T00:33:30.143Z,7.65
2023-07-25T00:36:32.777Z,8.32
2023-07-25T00:39:35.167Z,7.63
2023-07-25T00:42:37.744Z,7.43
2023-07-25T00:45:40.278Z,10.80
2023-07-25T00:48:45.143Z,8.60
2023-07-25T00:51:47.561Z,7.97
2023-07-25T00:54:52.054Z,7.50
2023-07-25T00:57:55.555Z,10.38
2023-07-25T01:01:08.203Z,6.57
2023-07-25T01:04:10.759Z,8.07
2023-07-25T01:07:17.288Z,5.50
2023-07-25T01:10:19.675Z,7.95
2023-07-25T01:13:23.533Z,5.40
2023-07-25T01:16:31.098Z,6.50
2023-07-25T01:19:35.709Z,8.13
2023-07-25T01:22:39.447Z,8.10
2023-07-25T01:25:47.435Z,9.65
2023-07-25T01:28:51.084Z,8.05
2023-07-25T01:32:02.672Z,11.23
2023-07-25T01:35:05.814Z,9.90
2023-07-25T01:38:08.203Z,9.93
2023-07-25T01:41:10.629Z,12.60
2023-07-25T01:44:12.977Z,8.68
2023-07-25T01:47:15.553Z,8.10
2023-07-25T01:50:18.346Z,10.32
2023-07-25T01:53:20.862Z,8.57
2023-07-25T01:56:23.226Z,6.88
2023-07-25T01:59:28.113Z,7.47
2023-07-25T02:02:30.443Z,7.93
2023-07-25T02:05:33.571Z,8.98
2023-07-25T02:08:36.275Z,10.30
2023-07-25T02:11:38.622Z,7.65
2023-07-25T02:14:41.632Z,7.65
2023-07-25T02:17:44.289Z,6.70
2023-07-25T02:20:48.870Z,8.57
2023-07-25T02:23:52.297Z,8.75
2023-07-25T02:26:54.843Z,7.40
2023-07-25T02:30:00.895Z,4.88
2023-07-25T02:33:03.494Z,7.83
2023-07-25T02:36:07.233Z,6.38
2023-07-25T02:39:10.036Z,7.93
2023-07-25T02:42:12.834Z,9.70
2023-07-25T02:45:15.400Z,8.60
2023-07-25T02:48:19.240Z,9.17
2023-07-25T02:51:22.583Z,7.05
2023-07-25T02:54:25.331Z,6.78
2023-07-25T02:57:27.723Z,8.02
2023-07-25T03:00:30.050Z,10.07
2023-07-25T03:03:32.486Z,9.27
2023-07-25T03:06:35.105Z,8.18
2023-07-25T03:09:38.450Z,9.20
2023-07-25T03:12:41.012Z,8.55
2023-07-25T03:15:43.427Z,9.13
2023-07-25T03:18:46.032Z,7.50
2023-07-25T03:21:54.432Z,7.13
2023-07-25T03:24:56.903Z,7.35
2023-07-25T03:27:59.394Z,8.25
2023-07-25T03:31:01.915Z,7.55
2023-07-25T03:34:04.224Z,8.40
2023-07-25T03:37:06.717Z,8.07
2023-07-25T03:40:12.745Z,7.07
2023-07-25T03:43:15.380Z,9.43
2023-07-25T03:46:17.714Z,7.32
2023-07-25T03:49:22.633Z,8.13
2023-07-25T03:52:25.193Z,9.40
2023-07-25T03:55:27.587Z,8.07
2023-07-25T03:58:30.098Z,7.05
2023-07-25T04:01:32.663Z,7.95
2023-07-25T04:04:35.396Z,9.27
2023-07-25T04:07:38.242Z,8.52
2023-07-25T04:10:40.768Z,10.75
2023-07-25T04:13:43.029Z,9.07
2023-07-25T04:16:45.610Z,10.45
2023-07-25T04:19:48.108Z,7.40
2023-07-25T04:22:50.608Z,8.57
2023-07-25T04:25:53.127Z,10.65
2023-07-25T04:28:55.447Z,7.53
2023-07-25T04:31:58.284Z,6.80
2023-07-25T04:35:00.890Z,11.43
2023-07-25T04:38:03.387Z,6.50
2023-07-25T04:41:05.691Z,6.72
2023-07-25T04:44:08.342Z,5.82
2023-07-25T04:47:10.998Z,5.90
2023-07-25T04:50:14.187Z,6.17
2023-07-25T04:53:17.108Z,7.25
2023-07-25T04:56:22.815Z,6.95
2023-07-25T04:59:27.504Z,6.75
2023-07-25T05:02:29.912Z,5.03
2023-07-25T05:05:32.373Z,8.03
2023-07-25T05:08:34.788Z,5.35
2023-07-25T05:11:37.637Z,9.23
2023-07-25T05:14:40.438Z,7.55
2023-07-25T05:17:44.695Z,5.72
2023-07-25T05:20:48.554Z,7.80
2023-07-25T05:23:50.899Z,6.38
2023-07-25T05:26:53.208Z,8.00
2023-07-25T05:29:55.540Z,7.55
2023-07-25T05:32:57.868Z,8.52
2023-07-25T05:36:01.791Z,6.47
2023-07-25T05:39:04.211Z,8.45
2023-07-25T05:42:06.827Z,5.35
2023-07-25T05:45:09.456Z,7.38
2023-07-25T05:48:11.725Z,8.32
2023-07-25T05:51:14.096Z,6.83
2023-07-25T05:54:17.178Z,9.73
2023-07-25T05:57:19.612Z,5.85
2023-07-25T06:00:22.632Z,7.18
2023-07-25T06:03:24.988Z,6.35
2023-07-25T06:06:27.593Z,8.70
2023-07-25T06:09:30.026Z,5.75
2023-07-25T06:12:32.671Z,7.47
2023-07-25T06:15:38.156Z,6.15
2023-07-25T06:18:40.562Z,8.07
2023-07-25T06:21:42.934Z,8.13
2023-07-25T06:24:45.388Z,7.07
2023-07-25T06:27:48.821Z,7.13
2023-07-25T06:30:51.296Z,6.10
2023-07-25T06:33:53.700Z,6.63
2023-07-25T06:36:57.239Z,6.20
2023-07-25T06:40:01.353Z,8.05
2023-07-25T06:43:03.833Z,6.47
2023-07-25T06:46:06.750Z,6.63
2023-07-25T06:49:09.064Z,6.38
2023-07-25T06:52:11.423Z,8.40
2023-07-25T06:55:13.972Z,7.18
2023-07-25T06:58:16.324Z,5.05
2023-07-25T07:01:18.876Z,6.53
2023-07-25T07:04:21.311Z,4.85
2023-07-25T07:07:23.587Z,6.10
2023-07-25T07:10:25.886Z,6.32
2023-07-25T07:13:28.950Z,6.93
2023-07-25T07:16:31.256Z,5.63
2023-07-25T07:19:34.582Z,6.93
2023-07-25T07:22:36.959Z,5.63
2023-07-25T07:25:39.776Z,5.45
2023-07-25T07:28:42.917Z,6.22
2023-07-25T07:31:45.446Z,6.18
2023-07-25T07:34:47.866Z,5.22
2023-07-25T07:37:50.269Z,4.60
2023-07-25T07:40:52.800Z,4.60
2023-07-25T07:43:55.661Z,4.75
2023-07-25T07:46:57.990Z,5.03
2023-07-25T07:50:03.175Z,4.85
2023-07-25T07:53:10.473Z,4.00
2023-07-25T07:56:13.832Z,6.65
2023-07-25T07:59:16.144Z,6.95
2023-07-25T08:02:19.075Z,5.00
2023-07-25T08:05:21.781Z,7.53
2023-07-25T08:08:24.217Z,4.90
2023-07-25T08:11:26.529Z,5.43
2023-07-25T08:14:29.036Z,5.88
2023-07-25T08:17:31.527Z,5.32
2023-07-25T08:20:33.900Z,4.82
2023-07-25T08:23:36.210Z,5.87
2023-07-25T08:26:38.659Z,6.55
2023-07-25T08:29:42.002Z,11.88
2023-07-25T08:32:44.300Z,7.03
2023-07-25T08:35:47.837Z,8.57
2023-07-25T08:38:50.226Z,7.30
2023-07-25T08:41:53.964Z,7.28
2023-07-25T08:44:56.811Z,8.30
2023-07-25T08:48:04.309Z,5.28
2023-07-25T08:51:19.635Z,6.65
2023-07-25T08:54:33.734Z,6.40
2023-07-25T08:57:38.402Z,6.45
2023-07-25T09:00:41.697Z,9.65
2023-07-25T09:03:45.821Z,6.85
2023-07-25T09:06:48.586Z,12.48
2023-07-25T09:09:50.919Z,11.07
2023-07-25T09:12:53.873Z,10.75
2023-07-25T09:15:56.475Z,9.25
2023-07-25T09:18:59.120Z,10.13
2023-07-25T09:22:01.936Z,9.85
2023-07-25T09:25:09.560Z,6.47
2023-07-25T09:28:11.903Z,15.57
2023-07-25T09:31:14.213Z,10.13
2023-07-25T09:34:20.703Z,8.88
2023-07-25T09:37:23.364Z,9.07
2023-07-25T09:40:26.306Z,12.10
2023-07-25T09:43:29.335Z,8.90
2023-07-25T09:46:31.739Z,8.43
2023-07-25T09:49:34.570Z,8.32
2023-07-25T09:52:41.503Z,9.13
2023-07-25T09:55:45.238Z,6.90
2023-07-25T09:59:05.722Z,9.68
2023-07-25T10:02:10.954Z,9.18
2023-07-25T10:05:14.340Z,11.05
2023-07-25T10:08:17.882Z,7.20
2023-07-25T10:11:22.031Z,6.47
2023-07-25T10:14:24.593Z,8.57
2023-07-25T10:17:27.285Z,8.88
2023-07-25T10:20:29.865Z,6.68
2023-07-25T10:23:35.892Z,8.48
2023-07-25T10:26:55.935Z,8.57
2023-07-25T10:30:02.781Z,7.60
2023-07-25T10:33:07.664Z,7.13
2023-07-25T10:36:24.562Z,5.60
2023-07-25T10:39:27.362Z,7.78
2023-07-25T10:43:06.684Z,6.33
2023-07-25T10:46:14.811Z,7.97
2023-07-25T10:49:17.640Z,5.90
2023-07-25T10:52:43.322Z,5.85
2023-07-25T10:56:07.874Z,5.55
2023-07-25T10:59:13.286Z,4.83
2023-07-25T11:02:34.024Z,6.20
2023-07-25T11:05:36.483Z,7.65
2023-07-25T11:08:43.270Z,5.53
2023-07-25T11:11:47.844Z,4.93
2023-07-25T11:14:50.773Z,5.77
2023-07-25T11:17:53.694Z,6.13
2023-07-25T11:21:06.607Z,5.18
2023-07-25T11:24:10.097Z,6.10
2023-07-25T11:27:13.122Z,4.47
2023-07-25T11:30:16.162Z,3.50
2023-07-25T11:33:19.204Z,4.70
2023-07-25T11:36:22.682Z,9.45
2023-07-25T11:39:25.149Z,5.28
2023-07-25T11:42:28.870Z,6.90
2023-07-25T11:45:31.516Z,7.77
2023-07-25T11:48:34.191Z,6.32
2023-07-25T11:51:38.282Z,4.32
2023-07-25T11:54:40.974Z,5.65
2023-07-25T11:57:43.568Z,5.97
2023-07-25T12:00:52.458Z,6.37
2023-07-25T12:03:54.977Z,5.72
2023-07-25T12:07:00.418Z,6.07
2023-07-25T12:10:02.727Z,6.43
2023-07-25T12:13:09.737Z,5.32
2023-07-25T12:16:37.134Z,5.50
2023-07-25T12:19:39.771Z,5.38
2023-07-25T12:22:42.206Z,4.28
2023-07-25T12:25:44.620Z,6.47
2023-07-25T12:28:46.909Z,6.25
2023-07-25T12:31:49.570Z,4.80
2023-07-25T12:34:52.112Z,6.75
2023-07-25T12:37:54.476Z,8.95
2023-07-25T12:40:56.882Z,7.60
2023-07-25T12:44:00.267Z,6.97
2023-07-25T12:47:05.675Z,5.43
2023-07-25T12:50:09.877Z,7.13
2023-07-25T12:53:12.665Z,4.40
2023-07-25T12:56:14.998Z,6.38
2023-07-25T12:59:17.316Z,4.47
2023-07-25T13:02:19.636Z,5.40
2023-07-25T13:05:21.999Z,6.32
2023-07-25T13:08:24.275Z,7.68
2023-07-25T13:11:26.680Z,6.40
2023-07-25T13:14:29.008Z,8.32
2023-07-25T13:17:31.604Z,5.50
2023-07-25T13:20:34.111Z,5.80
2023-07-25T13:23:36.610Z,5.65
2023-07-25T13:26:39.044Z,5.43
2023-07-25T13:29:41.534Z,7.20
2023-07-25T13:32:43.929Z,7.63
2023-07-25T13:35:46.511Z,7.45
2023-07-25T13:38:48.861Z,8.20
2023-07-25T13:41:51.270Z,4.43
2023-07-25T13:44:53.604Z,8.68
2023-07-25T13:47:56.040Z,6.43
2023-07-25T13:50:58.492Z,6.63
2023-07-25T13:54:00.826Z,5.85
2023-07-25T13:57:03.266Z,6.28
2023-07-25T14:00:06.620Z,8.25
2023-07-25T14:03:11.641Z,6.70
2023-07-25T14:06:14.024Z,4.60
2023-07-25T14:09:16.426Z,4.38
2023-07-25T14:12:18.944Z,4.18
2023-07-25T14:15:21.410Z,7.43
2023-07-25T14:18:24.212Z,6.37
2023-07-25T14:21:26.569Z,7.57
2023-07-25T14:24:29.074Z,5.13
2023-07-25T14:27:31.424Z,5.47
2023-07-25T14:30:35.273Z,5.45
2023-07-25T14:33:37.692Z,4.20
2023-07-25T14:36:40.031Z,3.47
2023-07-25T14:39:42.489Z,5.63
2023-07-25T14:42:45.270Z,4.70
2023-07-25T14:45:47.976Z,4.60
2023-07-25T14:48:50.302Z,3.97
2023-07-25T14:51:52.612Z,5.60
2023-07-25T14:54:54.926Z,3.50
2023-07-25T14:57:57.222Z,2.95
2023-07-25T15:00:59.884Z,4.72
2023-07-25T15:04:02.289Z,5.93
2023-07-25T15:07:05.198Z,6.18
2023-07-25T15:10:08.110Z,4.90
2023-07-25T15:13:12.495Z,3.58
2023-07-25T15:16:15.058Z,6.07
2023-07-25T15:19:17.431Z,4.00
2023-07-25T15:22:20.004Z,4.70
2023-07-25T15:25:22.341Z,3.97
2023-07-25T15:28:24.710Z,4.70
2023-07-25T15:31:27.052Z,5.68
2023-07-25T15:34:29.420Z,7.13
2023-07-25T15:37:31.724Z,5.28
2023-07-25T15:40:37.835Z,5.88
2023-07-25T15:43:40.230Z,4.22
2023-07-25T15:46:42.683Z,3.50
2023-07-25T15:49:45.237Z,4.60
2023-07-25T15:52:47.489Z,4.65
2023-07-25T15:55:49.851Z,3.58
2023-07-25T15:58:52.241Z,4.32
2023-07-25T16:01:54.885Z,4.53
2023-07-25T16:04:57.233Z,4.17
2023-07-25T16:08:03.818Z,4.07
2023-07-25T16:11:06.396Z,4.03
2023-07-25T16:14:08.820Z,4.80
2023-07-25T16:17:11.784Z,4.53
2023-07-25T16:20:14.188Z,3.60
2023-07-25T16:23:16.500Z,5.30
2023-07-25T16:26:19.074Z,3.00
2023-07-25T16:29:21.385Z,4.03
2023-07-25T16:32:24.194Z,3.05
2023-07-25T16:35:26.722Z,4.30
2023-07-25T16:38:29.023Z,4.47
2023-07-25T16:41:31.540Z,5.60
2023-07-25T16:44:34.059Z,5.18
2023-07-25T16:47:36.444Z,4.45
2023-07-25T16:50:38.858Z,4.77
2023-07-25T16:53:41.494Z,5.85
2023-07-25T16:56:44.305Z,8.30
2023-07-25T16:59:48.407Z,5.47
2023-07-25T17:02:51.034Z,3.95
2023-07-25T17:05:53.415Z,7.13
2023-07-25T17:08:57.629Z,4.82
2023-07-25T17:12:02.011Z,4.13
2023-07-25T17:15:06.803Z,5.28
2023-07-25T17:18:09.598Z,5.00
2023-07-25T17:21:13.448Z,7.33
2023-07-25T17:24:18.905Z,4.05
2023-07-25T17:27:21.530Z,3.72
2023-07-25T17:30:24.028Z,5.25
2023-07-25T17:33:26.635Z,7.60
2023-07-25T17:36:29.125Z,5.83
2023-07-25T17:39:34.044Z,6.50
2023-07-25T17:42:37.752Z,5.35
2023-07-25T17:45:41.429Z,4.18
2023-07-25T17:48:44.479Z,4.95
2023-07-25T17:51:46.887Z,5.90
2023-07-25T17:54:50.083Z,4.55
2023-07-25T17:57:52.648Z,6.60
2023-07-25T18:00:55.103Z,6.95
2023-07-25T18:03:57.633Z,7.15
2023-07-25T18:07:00.035Z,6.53
2023-07-25T18:10:02.564Z,5.60
2023-07-25T18:13:05.703Z,5.45
2023-07-25T18:16:08.965Z,5.10
2023-07-25T18:19:11.327Z,5.57
2023-07-25T18:22:13.713Z,5.20
2023-07-25T18:25:16.063Z,6.90
2023-07-25T18:28:21.950Z,5.40
2023-07-25T18:31:24.261Z,4.93
2023-07-25T18:34:26.722Z,5.50
2023-07-25T18:37:29.157Z,7.30
2023-07-25T18:40:31.514Z,5.53
2023-07-25T18:43:33.882Z,6.00
2023-07-25T18:46:37.363Z,4.65
2023-07-25T18:49:39.759Z,6.30
2023-07-25T18:52:42.204Z,5.77
2023-07-25T18:55:44.594Z,4.50
2023-07-25T18:58:46.901Z,6.40
2023-07-25T19:01:49.183Z,4.90
2023-07-25T19:04:52.092Z,6.15
2023-07-25T19:07:54.791Z,6.17
2023-07-25T19:10:57.190Z,5.57
2023-07-25T19:13:59.595Z,5.75
2023-07-25T19:17:02.945Z,5.25
2023-07-25T19:20:06.790Z,4.95
2023-07-25T19:23:23.598Z,4.53
2023-07-25T19:26:27.927Z,5.18
2023-07-25T19:29:30.269Z,5.18
2023-07-25T19:32:32.635Z,4.80
2023-07-25T19:35:35.319Z,4.57
2023-07-25T19:38:37.659Z,5.70
2023-07-25T19:41:40.281Z,5.38
2023-07-25T19:44:42.718Z,7.03
2023-07-25T19:47:45.140Z,4.47
2023-07-25T19:50:48.034Z,5.03
2023-07-25T19:53:52.125Z,4.50
2023-07-25T19:56:54.969Z,5.90
2023-07-25T19:59:57.340Z,7.47
2023-07-25T20:02:59.713Z,7.00
2023-07-25T20:06:03.107Z,7.55
2023-07-25T20:09:05.486Z,4.77
2023-07-25T20:12:09.322Z,4.57
2023-07-25T20:15:12.262Z,5.15
2023-07-25T20:18:16.145Z,5.63
2023-07-25T20:21:18.506Z,6.60
2023-07-25T20:24:20.857Z,5.33
2023-07-25T20:27:24.557Z,4.80
2023-07-25T20:30:26.933Z,4.75
2023-07-25T20:33:29.365Z,5.05
2023-07-25T20:36:32.008Z,3.92
2023-07-25T20:39:34.595Z,3.70
2023-07-25T20:42:36.948Z,4.95
2023-07-25T20:45:39.386Z,3.90
2023-07-25T20:48:41.725Z,5.30
2023-07-25T20:51:44.033Z,3.80
2023-07-25T20:54:46.482Z,4.67
2023-07-25T20:57:49.377Z,4.35
2023-07-25T21:00:52.254Z,5.85
2023-07-25T21:03:54.689Z,5.00
2023-07-25T21:06:57.018Z,5.68
2023-07-25T21:09:59.346Z,4.57
2023-07-25T21:13:01.679Z,4.13
2023-07-25T21:16:04.333Z,6.35
2023-07-25T21:19:06.937Z,5.03
2023-07-25T21:22:09.885Z,5.20
2023-07-25T21:25:12.428Z,4.00
2023-07-25T21:28:14.715Z,2.97
2023-07-25T21:31:17.129Z,4.22
2023-07-25T21:34:19.975Z,3.30
2023-07-25T21:37:22.637Z,3.90
2023-07-25T21:40:25.260Z,3.30
2023-07-25T21:43:27.631Z,2.80
2023-07-25T21:46:30.104Z,3.08
2023-07-25T21:49:32.546Z,4.68
2023-07-25T21:52:34.803Z,3.83
2023-07-25T21:55:37.164Z,4.47
2023-07-25T21:58:39.524Z,3.90
2023-07-25T22:01:41.864Z,4.32
2023-07-25T22:04:44.225Z,5.40
2023-07-25T22:07:47.417Z,4.93
2023-07-25T22:10:49.924Z,4.77
2023-07-25T22:13:52.512Z,5.07
2023-07-25T22:16:55.050Z,4.35
2023-07-25T22:19:57.356Z,3.78
2023-07-25T22:22:59.621Z,2.75
2023-07-25T22:26:03.389Z,4.47
2023-07-25T22:29:05.747Z,2.70
2023-07-25T22:32:08.406Z,3.38
2023-07-25T22:35:10.766Z,4.18
2023-07-25T22:38:13.219Z,4.22
2023-07-25T22:41:16.235Z,3.80
2023-07-25T22:44:18.631Z,2.80
2023-07-25T22:47:21.098Z,3.88
2023-07-25T22:50:23.653Z,3.00
2023-07-25T22:53:26.039Z,3.10
2023-07-25T22:56:28.424Z,3.47
2023-07-25T22:59:30.832Z,6.28
2023-07-25T23:02:33.253Z,3.65
2023-07-25T23:05:35.919Z,4.70
2023-07-25T23:08:38.195Z,3.20
2023-07-25T23:11:40.545Z,4.53
2023-07-25T23:14:43.287Z,3.17
2023-07-25T23:17:45.592Z,3.55
2023-07-25T23:20:47.930Z,4.05
2023-07-25T23:23:50.225Z,4.25
2023-07-25T23:26:52.677Z,5.67
2023-07-25T23:29:55.033Z,4.20
2023-07-25T23:32:57.405Z,5.25
2023-07-25T23:36:00.146Z,4.75
2023-07-25T23:39:02.546Z,3.65
2023-07-25T23:42:05.324Z,4.17
2023-07-25T23:45:08.322Z,4.13
2023-07-25T23:48:10.876Z,5.57
2023-07-25T23:51:13.190Z,5.78
2023-07-25T23:54:15.503Z,4.07
2023-07-25T23:57:17.885Z,4.00
